Time;durP1;ratioP1;P1;durP2;ratioP2;P2;SDS_P1;SDS_P2;PMS_P1;PMS_P2;Temp;Humidity;BMP_temperature;BMP_pressure;BME280_temperature;BME280_humidity;BME280_pressure;Samples;Min_cycle;Max_cycle;Signal;HPM_P1;HPM_P2
2022/12/13 00:01:12;;;;;;;28.13;13.00;;;-2.10;88.90;;;;;;5055595;28;20028;-79
2022/12/13 00:03:38;;;;;;;31.83;13.90;;;-2.10;89.00;;;;;;5055417;28;20108;-79
2022/12/13 00:06:09;;;;;;;33.03;13.30;;;-2.20;89.00;;;;;;5072549;28;20324;-79
2022/12/13 00:08:35;;;;;;;31.90;13.77;;;-2.20;89.10;;;;;;5056079;28;20518;-79
2022/12/13 00:11:02;;;;;;;28.53;13.60;;;-2.20;89.10;;;;;;5089524;28;20287;-79
2022/12/13 00:13:29;;;;;;;29.93;14.10;;;-2.20;89.10;;;;;;5071976;28;20275;-79
2022/12/13 00:15:56;;;;;;;28.97;13.60;;;-2.20;89.20;;;;;;5072252;28;20259;-79
2022/12/13 00:18:22;;;;;;;32.60;14.93;;;-2.20;89.30;;;;;;5055664;28;20797;-79
2022/12/13 00:20:47;;;;;;;28.20;13.67;;;-2.20;89.30;;;;;;5055346;28;20279;-79
2022/12/13 00:23:13;;;;;;;31.27;13.97;;;-2.30;89.90;;;;;;5072144;28;20078;-79
2022/12/13 00:25:38;;;;;;;30.27;14.03;;;-2.30;89.40;;;;;;5072135;28;20116;-79
2022/12/13 00:28:04;;;;;;;27.47;13.17;;;-2.20;89.50;;;;;;5071967;28;20017;-79
2022/12/13 00:30:32;;;;;;;30.50;15.30;;;-2.30;89.50;;;;;;5055263;28;20533;-79
2022/12/13 00:32:58;;;;;;;30.47;13.57;;;-2.30;90.10;;;;;;5055666;28;20028;-79
2022/12/13 00:35:23;;;;;;;30.97;13.80;;;-2.30;89.70;;;;;;5072136;28;20287;-79
2022/12/13 00:37:49;;;;;;;27.10;13.27;;;-2.40;89.70;;;;;;5071863;28;20028;-79
2022/12/13 00:40:15;;;;;;;30.33;13.93;;;-2.40;89.70;;;;;;5073320;28;20020;-79
2022/12/13 00:42:40;;;;;;;28.87;13.13;;;-2.40;89.80;;;;;;5071828;28;20021;-79
2022/12/13 00:45:06;;;;;;;30.67;13.53;;;-2.40;89.90;;;;;;5055128;28;20029;-79
2022/12/13 00:47:32;;;;;;;26.67;13.20;;;-2.40;90.00;;;;;;5071818;28;20036;-80
2022/12/13 00:49:58;;;;;;;31.13;13.57;;;-2.40;90.00;;;;;;5071838;28;20763;-78
2022/12/13 00:52:23;;;;;;;31.70;14.13;;;-2.40;90.10;;;;;;5054978;28;20039;-79
2022/12/13 00:54:49;;;;;;;28.80;13.37;;;-2.40;90.10;;;;;;5088476;28;20562;-79
2022/12/13 00:57:14;;;;;;;27.57;14.20;;;-2.40;90.10;;;;;;5079976;28;20028;-79
2022/12/13 00:59:40;;;;;;;32.90;14.77;;;-2.40;90.10;;;;;;5073978;28;20020;-79
2022/12/13 01:02:05;;;;;;;30.97;14.30;;;-2.40;90.20;;;;;;5091735;28;20522;-79
2022/12/13 01:04:31;;;;;;;34.67;14.53;;;-2.40;90.20;;;;;;5091883;28;20089;-79
2022/12/13 01:06:57;;;;;;;37.30;15.37;;;-2.50;90.20;;;;;;5091979;28;20350;-79
2022/12/13 01:09:28;;;;;;;26.67;13.37;;;-2.50;90.30;;;;;;5091771;28;20388;-79
2022/12/13 01:12:05;;;;;;;30.93;12.40;;;-2.50;90.30;;;;;;5090993;28;20044;-79
2022/12/13 01:14:34;;;;;;;30.13;13.53;;;-2.50;90.30;;;;;;5094715;28;20278;-79
2022/12/13 01:16:59;;;;;;;28.27;13.97;;;-2.50;90.40;;;;;;5095762;28;20285;-79
2022/12/13 01:19:26;;;;;;;28.10;13.13;;;-2.50;90.40;;;;;;5096011;28;20286;-80
2022/12/13 01:21:58;;;;;;;29.20;13.30;;;-2.50;90.40;;;;;;5095581;28;20388;-79
2022/12/13 01:24:24;;;;;;;30.07;13.37;;;-2.50;90.50;;;;;;5095416;28;20286;-78
2022/12/13 01:26:51;;;;;;;29.47;13.37;;;-2.50;90.60;;;;;;5097052;28;20320;-81
2022/12/13 01:29:18;;;;;;;29.77;13.17;;;-2.50;90.60;;;;;;5095504;28;20343;-80
2022/12/13 01:31:44;;;;;;;28.87;13.63;;;-2.50;90.60;;;;;;5095691;28;20274;-81
2022/12/13 01:34:15;;;;;;;27.63;13.67;;;-2.60;90.60;;;;;;5078498;28;20766;-81
2022/12/13 01:36:42;;;;;;;26.23;12.90;;;-2.60;90.70;;;;;;5095320;28;20027;-79
2022/12/13 01:39:09;;;;;;;29.57;13.53;;;-2.60;90.70;;;;;;5078386;28;20693;-79
2022/12/13 01:41:35;;;;;;;29.77;13.57;;;-2.60;90.80;;;;;;5096628;28;20274;-80
2022/12/13 01:44:04;;;;;;;30.17;13.23;;;-2.60;90.80;;;;;;5095272;28;20293;-79
2022/12/13 01:46:32;;;;;;;25.90;12.90;;;-2.60;90.80;;;;;;5095276;28;20062;-79
2022/12/13 01:49:12;;;;;;;32.37;13.60;;;-2.60;90.90;;;;;;5095550;28;20357;-79
2022/12/13 01:51:40;;;;;;;30.03;13.77;;;-2.60;90.90;;;;;;5096662;28;20274;-79
2022/12/13 01:54:09;;;;;;;30.47;13.23;;;-2.60;90.90;;;;;;5096422;28;20346;-79
2022/12/13 01:56:43;;;;;;;27.80;12.57;;;-2.60;90.90;;;;;;5096091;28;20290;-79
2022/12/13 01:59:11;;;;;;;28.33;13.35;;;-2.60;90.90;;;;;;5095046;28;20288;-79
2022/12/13 02:01:37;;;;;;;26.43;12.67;;;-2.70;90.90;;;;;;5095072;28;20027;-79
2022/12/13 02:04:03;;;;;;;29.80;12.40;;;-2.60;91.00;;;;;;5095016;28;20374;-80
2022/12/13 02:06:41;;;;;;;29.17;12.70;;;-2.70;91.00;;;;;;5094576;28;20838;-79
2022/12/13 02:09:07;;;;;;;27.50;12.80;;;-2.70;91.00;;;;;;5094901;28;20031;-79
2022/12/13 02:11:37;;;;;;;31.43;12.87;;;-2.70;91.00;;;;;;5078124;28;20330;-80
2022/12/13 02:14:04;;;;;;;29.37;13.60;;;-2.70;91.00;;;;;;5094714;28;20880;-79
2022/12/13 02:16:51;;;;;;;34.70;13.97;;;-2.80;91.00;;;;;;5094968;28;20750;-79
2022/12/13 02:19:38;;;;;;;29.83;13.13;;;-2.80;91.00;;;;;;5096076;28;20595;-80
2022/12/13 02:22:24;;;;;;;27.20;12.47;;;-2.80;91.10;;;;;;5094955;28;20282;-79
2022/12/13 02:25:15;;;;;;;30.07;13.20;;;-2.80;91.10;;;;;;5094632;28;20335;-80
2022/12/13 02:27:47;;;;;;;32.70;14.30;;;-2.80;91.20;;;;;;5093570;28;20278;-81
2022/12/13 02:30:40;;;;;;;25.07;12.20;;;-2.80;91.20;;;;;;5093589;28;20270;-81
2022/12/13 02:33:12;;;;;;;30.00;12.93;;;-2.80;91.20;;;;;;5094704;28;20319;-81
2022/12/13 02:35:49;;;;;;;28.27;13.07;;;-2.90;91.20;;;;;;5095838;28;20266;-80
2022/12/13 02:38:31;;;;;;;26.87;12.20;;;-2.90;91.20;;;;;;5095829;28;20270;-81
2022/12/13 02:41:03;;;;;;;28.23;12.60;;;-2.80;91.30;;;;;;5095191;28;20365;-80
2022/12/13 02:43:35;;;;;;;28.07;13.27;;;-2.80;91.30;;;;;;5082073;28;20288;-79
2022/12/13 02:46:03;;;;;;;28.30;13.33;;;-2.90;91.30;;;;;;5094916;28;20291;-78
2022/12/13 02:48:33;;;;;;;28.07;13.03;;;-2.90;91.30;;;;;;5095280;28;20270;-80
2022/12/13 02:51:02;;;;;;;32.10;13.57;;;-2.90;91.40;;;;;;5094350;28;20756;-79
2022/12/13 02:53:28;;;;;;;28.67;13.13;;;-2.90;91.40;;;;;;5077530;28;20274;-78
2022/12/13 02:55:54;;;;;;;29.20;13.63;;;-2.90;91.50;;;;;;5093909;28;20290;-78
2022/12/13 02:58:26;;;;;;;28.37;13.40;;;-2.90;91.50;;;;;;5093817;28;20270;-79
2022/12/13 03:01:13;;;;;;;29.70;13.93;;;-2.90;91.50;;;;;;5093692;28;20020;-79
2022/12/13 03:03:44;;;;;;;28.33;13.33;;;-2.90;91.60;;;;;;5093577;28;20591;-78
2022/12/13 03:06:38;;;;;;;26.50;12.20;;;-3.00;91.60;;;;;;5093934;28;20600;-78
2022/12/13 03:09:25;;;;;;;33.63;14.43;;;-2.90;91.60;;;;;;5093549;28;20630;-81
2022/12/13 03:15:11;;;;;;;24.57;12.03;;;-3.00;91.70;;;;;;5094707;28;20305;-78
2022/12/13 03:17:42;;;;;;;32.57;14.37;;;-2.90;91.80;;;;;;5093512;28;20331;-79
2022/12/13 03:20:09;;;;;;;33.23;15.00;;;-2.90;91.80;;;;;;5093255;28;20373;-79
2022/12/13 03:22:34;;;;;;;30.07;13.27;;;-3.00;91.80;;;;;;5076443;28;20313;-79
2022/12/13 03:25:00;;;;;;;31.87;13.83;;;-2.90;91.80;;;;;;5094339;28;20341;-79
2022/12/13 03:27:26;;;;;;;29.53;13.33;;;-2.90;91.90;;;;;;5076610;28;20426;-79
2022/12/13 03:29:51;;;;;;;30.60;13.83;;;-3.00;91.90;;;;;;5076529;28;20086;-80
2022/12/13 03:32:17;;;;;;;33.77;14.57;;;-2.90;92.00;;;;;;5076324;28;20130;-80
2022/12/13 03:34:43;;;;;;;32.63;14.90;;;-3.00;92.00;;;;;;5076189;28;20069;-79
2022/12/13 03:37:08;;;;;;;31.57;14.03;;;-3.00;92.00;;;;;;5075515;28;20115;-79
2022/12/13 03:39:34;;;;;;;31.33;14.87;;;-3.00;92.10;;;;;;5074767;28;20032;-79
2022/12/13 03:42:00;;;;;;;34.50;15.10;;;-2.90;92.10;;;;;;5094308;28;20383;-80
2022/12/13 03:44:26;;;;;;;30.90;14.53;;;-3.00;92.10;;;;;;5092982;28;20369;-79
2022/12/13 03:46:51;;;;;;;28.73;14.00;;;-3.00;92.20;;;;;;5076094;28;20410;-79
2022/12/13 03:49:17;;;;;;;28.90;14.20;;;-3.00;92.20;;;;;;5110008;28;20029;-79
2022/12/13 03:51:44;;;;;;;33.83;14.77;;;-3.00;92.30;;;;;;5076435;28;20027;-79
2022/12/13 03:54:09;;;;;;;33.53;15.00;;;-3.00;92.30;;;;;;5093054;28;20028;-80
2022/12/13 03:56:35;;;;;;;33.27;13.73;;;-3.00;92.30;;;;;;5092744;28;20384;-79
2022/12/13 03:59:01;;;;;;;31.87;13.77;;;-3.00;92.40;;;;;;5092796;28;20467;-79
2022/12/13 04:01:27;;;;;;;32.47;15.03;;;-3.00;92.40;;;;;;5092707;28;20020;-79
2022/12/13 04:03:52;;;;;;;31.20;15.07;;;-3.00;92.40;;;;;;5092745;28;20020;-80
2022/12/13 04:06:18;;;;;;;33.33;15.07;;;-3.00;92.50;;;;;;5075844;28;20342;-79
2022/12/13 04:08:44;;;;;;;33.47;14.40;;;-3.00;92.50;;;;;;5109599;28;20020;-79
2022/12/13 04:13:54;;;;;;;35.28;14.18;;;-3.00;92.60;;;;;;5094071;28;20074;-79
2022/12/13 04:16:21;;;;;;;31.60;14.57;;;-3.00;92.60;;;;;;5092466;28;20020;-79
2022/12/13 04:18:47;;;;;;;34.87;14.67;;;-3.00;92.70;;;;;;5092380;28;20278;-79
2022/12/13 04:21:12;;;;;;;31.57;13.97;;;-3.00;92.70;;;;;;5092430;28;20305;-79
2022/12/13 04:23:38;;;;;;;32.73;14.53;;;-3.00;92.70;;;;;;5092215;28;20071;-79
2022/12/13 04:26:04;;;;;;;31.40;14.60;;;-3.00;92.80;;;;;;5075521;28;20027;-79
2022/12/13 04:28:29;;;;;;;30.37;13.73;;;-3.00;92.80;;;;;;5075559;28;20066;-79
2022/12/13 04:30:55;;;;;;;31.90;14.50;;;-3.00;93.20;;;;;;5092333;28;20488;-79
2022/12/13 04:33:22;;;;;;;28.23;13.23;;;-3.00;92.90;;;;;;5075493;28;20031;-79
2022/12/13 04:35:48;;;;;;;33.60;15.90;;;-3.00;92.90;;;;;;5092242;28;20028;-79
2022/12/13 04:38:14;;;;;;;31.30;14.10;;;-3.10;93.00;;;;;;5092363;28;20293;-79
2022/12/13 04:40:39;;;;;;;38.30;16.27;;;-3.00;93.00;;;;;;5075315;28;20369;-79
2022/12/13 04:43:05;;;;;;;36.13;14.80;;;-3.00;93.10;;;;;;5093493;28;20106;-79
2022/12/13 04:45:30;;;;;;;33.33;14.10;;;-3.00;93.10;;;;;;5091824;28;20460;-79
2022/12/13 04:47:56;;;;;;;36.07;15.23;;;-2.90;93.20;;;;;;5093437;28;20020;-79
2022/12/13 04:50:22;;;;;;;30.00;13.50;;;-3.10;93.10;;;;;;5082369;28;20369;-79
2022/12/13 04:52:47;;;;;;;31.27;14.00;;;-3.10;93.20;;;;;;5082038;28;20468;-79
2022/12/13 04:55:13;;;;;;;31.80;14.37;;;-3.10;93.20;;;;;;5096947;28;20531;-80
2022/12/13 04:57:39;;;;;;;32.37;14.77;;;-3.10;93.30;;;;;;5078111;28;20396;-80
2022/12/13 05:00:08;;;;;;;33.73;14.27;;;-3.10;93.30;;;;;;5061477;28;20078;-80
2022/12/13 05:02:34;;;;;;;29.03;13.63;;;-3.10;93.40;;;;;;5079666;28;20359;-80
2022/12/13 05:05:00;;;;;;;33.03;14.17;;;-3.10;93.40;;;;;;5078129;28;20790;-80
2022/12/13 05:07:26;;;;;;;30.90;13.90;;;-3.10;93.40;;;;;;5078646;28;20321;-80
2022/12/13 05:09:52;;;;;;;34.50;15.30;;;-3.10;93.50;;;;;;5078952;28;20028;-80
2022/12/13 05:12:17;;;;;;;33.57;15.17;;;-3.10;93.50;;;;;;5075380;28;20439;-80
2022/12/13 05:14:43;;;;;;;32.47;14.27;;;-3.10;93.60;;;;;;5098052;28;20024;-80
2022/12/13 05:17:08;;;;;;;31.13;14.63;;;-3.10;93.60;;;;;;5077266;28;20032;-80
2022/12/13 05:19:34;;;;;;;33.80;13.93;;;-3.10;93.60;;;;;;5095077;28;20036;-80
2022/12/13 05:22:00;;;;;;;34.13;15.00;;;-3.10;93.60;;;;;;5090102;28;20484;-80
2022/12/13 05:24:25;;;;;;;34.57;15.40;;;-3.10;93.60;;;;;;5076945;28;20056;-80
2022/12/13 05:26:51;;;;;;;34.90;14.83;;;-3.10;93.60;;;;;;5059817;28;20060;-80
2022/12/13 05:29:17;;;;;;;33.43;15.77;;;-3.10;93.70;;;;;;5044969;28;20032;-80
2022/12/13 05:31:43;;;;;;;35.13;15.17;;;-3.10;93.70;;;;;;5078185;28;20471;-80
2022/12/13 05:34:09;;;;;;;37.40;15.03;;;-3.10;93.70;;;;;;5078776;28;20090;-81
2022/12/13 05:36:35;;;;;;;32.33;14.33;;;-3.10;93.70;;;;;;5080001;28;20282;-82
2022/12/13 05:39:00;;;;;;;36.23;15.33;;;-3.10;93.80;;;;;;5079615;28;20042;-81
2022/12/13 05:41:30;;;;;;;35.77;16.57;;;-3.10;93.80;;;;;;5080047;28;20458;-81
2022/12/13 05:43:57;;;;;;;39.03;16.67;;;-3.10;93.80;;;;;;5078132;28;20362;-80
2022/12/13 05:46:22;;;;;;;32.30;14.60;;;-3.10;93.90;;;;;;5061722;28;20278;-80
2022/12/13 05:48:48;;;;;;;36.57;15.93;;;-3.20;93.90;;;;;;5061345;28;20282;-80
2022/12/13 05:51:13;;;;;;;31.30;14.53;;;-3.20;93.90;;;;;;5077945;28;20062;-79
2022/12/13 05:53:41;;;;;;;35.27;15.60;;;-3.20;94.20;;;;;;5078185;28;20107;-80
2022/12/13 05:56:08;;;;;;;38.33;14.53;;;-3.20;93.90;;;;;;5077750;28;20081;-80
2022/12/13 05:58:33;;;;;;;32.63;14.60;;;-3.20;94.00;;;;;;5078073;28;20747;-80
2022/12/13 06:01:11;;;;;;;34.10;15.23;;;-3.20;94.00;;;;;;5057620;28;20282;-82
2022/12/13 06:03:37;;;;;;;33.63;14.40;;;-3.20;94.10;;;;;;5075786;28;20036;-81
2022/12/13 06:06:05;;;;;;;28.07;13.77;;;-3.20;94.10;;;;;;5075815;28;20277;-81
2022/12/13 06:08:31;;;;;;;31.07;14.27;;;-3.20;94.10;;;;;;5057766;28;20788;-82
2022/12/13 06:10:59;;;;;;;31.50;14.50;;;-3.20;94.20;;;;;;5074644;28;20274;-81
2022/12/13 06:13:25;;;;;;;32.37;13.70;;;-3.20;94.20;;;;;;5074439;28;20020;-81
2022/12/13 06:15:51;;;;;;;32.07;14.80;;;-3.30;94.20;;;;;;5062836;28;20278;-81
2022/12/13 06:18:16;;;;;;;36.13;15.67;;;-3.30;94.20;;;;;;5095799;28;20533;-81
2022/12/13 06:20:46;;;;;;;34.33;16.50;;;-3.40;94.30;;;;;;5077766;28;20274;-81
2022/12/13 06:23:12;;;;;;;34.97;15.27;;;-3.30;94.40;;;;;;5076441;28;20137;-81
2022/12/13 06:25:37;;;;;;;32.77;15.23;;;-3.30;94.40;;;;;;5095197;28;20352;-81
2022/12/13 06:28:03;;;;;;;34.00;15.43;;;-3.30;94.40;;;;;;5093816;28;20723;-81
2022/12/13 06:30:29;;;;;;;33.20;14.93;;;-3.30;94.40;;;;;;5093633;28;20481;-81
2022/12/13 06:32:55;;;;;;;34.83;15.53;;;-3.40;94.40;;;;;;5094891;28;20024;-81
2022/12/13 06:35:21;;;;;;;36.43;15.17;;;-3.30;94.50;;;;;;5076903;28;20324;-81
2022/12/13 06:37:51;;;;;;;35.13;15.67;;;-3.30;94.50;;;;;;5076919;28;20387;-82
2022/12/13 06:40:16;;;;;;;33.73;14.83;;;-3.40;94.50;;;;;;5076812;28;20117;-81
2022/12/13 06:42:42;;;;;;;41.20;16.17;;;-3.40;94.50;;;;;;5095033;28;20312;-80
2022/12/13 06:45:08;;;;;;;38.07;15.60;;;-3.40;94.60;;;;;;5093559;28;20473;-81
2022/12/13 06:47:34;;;;;;;31.17;14.77;;;-3.40;94.70;;;;;;5076741;28;20330;-81
2022/12/13 06:49:59;;;;;;;32.13;15.23;;;-3.40;94.70;;;;;;5076694;28;20416;-81
2022/12/13 06:52:25;;;;;;;39.07;15.27;;;-3.40;94.70;;;;;;5076904;28;20050;-81
2022/12/13 06:54:54;;;;;;;36.87;16.67;;;-3.50;94.70;;;;;;5076821;28;20075;-81
2022/12/13 06:57:19;;;;;;;31.17;14.10;;;-3.40;94.80;;;;;;5077392;28;20126;-81
2022/12/13 06:59:46;;;;;;;34.43;14.50;;;-3.50;94.80;;;;;;5076765;28;20321;-81
2022/12/13 07:02:14;;;;;;;31.47;14.63;;;-3.50;95.10;;;;;;5093927;28;20024;-80
2022/12/13 07:04:40;;;;;;;31.93;14.43;;;-3.50;94.90;;;;;;5093500;28;20320;-80
2022/12/13 07:07:05;;;;;;;37.27;14.67;;;-3.50;94.90;;;;;;5076556;28;20274;-81
2022/12/13 07:09:35;;;;;;;35.80;15.97;;;-3.50;94.90;;;;;;5093677;28;20491;-81
2022/12/13 07:12:19;;;;;;;30.67;14.20;;;-3.50;94.90;;;;;;5093488;28;20052;-82
2022/12/13 07:14:45;;;;;;;36.93;14.80;;;-3.50;95.00;;;;;;5093606;28;20289;-80
2022/12/13 07:17:11;;;;;;;34.10;14.73;;;-3.20;95.10;;;;;;5094408;28;20278;-80
2022/12/13 07:19:37;;;;;;;37.10;14.67;;;-3.50;95.30;;;;;;5076405;28;20118;-80
2022/12/13 07:22:06;;;;;;;37.63;15.27;;;-3.50;95.10;;;;;;5093333;28;20111;-81
2022/12/13 07:24:34;;;;;;;38.23;16.80;;;-3.60;95.10;;;;;;5092877;28;20104;-79
2022/12/13 07:26:59;;;;;;;38.80;16.60;;;-3.40;95.10;;;;;;5075812;28;20290;-81
2022/12/13 07:29:25;;;;;;;32.90;14.30;;;-3.50;95.10;;;;;;5076236;28;20316;-80
2022/12/13 07:31:51;;;;;;;38.00;15.57;;;-3.40;95.10;;;;;;5076025;28;20104;-81
2022/12/13 07:34:16;;;;;;;35.73;16.50;;;-3.50;95.10;;;;;;5075901;28;20028;-81
2022/12/13 07:36:42;;;;;;;41.03;16.83;;;-3.50;95.40;;;;;;5075910;28;20032;-80
2022/12/13 07:39:08;;;;;;;35.93;15.27;;;-3.50;95.20;;;;;;5074526;28;20048;-81
2022/12/13 07:41:34;;;;;;;30.17;14.33;;;-3.40;95.30;;;;;;5092408;28;20476;-80
2022/12/13 07:43:59;;;;;;;37.27;16.93;;;-3.40;95.30;;;;;;5093198;28;20484;-83
2022/12/13 07:46:25;;;;;;;33.30;16.50;;;-3.50;95.30;;;;;;5093215;28;20032;-83
2022/12/13 07:48:51;;;;;;;42.63;17.93;;;-3.50;95.60;;;;;;5093276;28;20032;-83
2022/12/13 07:51:16;;;;;;;32.57;15.60;;;-3.50;95.30;;;;;;5076157;28;20027;-83
2022/12/13 07:53:42;;;;;;;42.57;16.57;;;-3.40;95.40;;;;;;5092900;28;20063;-83
2022/12/13 07:56:10;;;;;;;35.80;17.07;;;-3.50;95.40;;;;;;5075857;28;20056;-83
2022/12/13 07:58:36;;;;;;;39.50;17.00;;;-3.40;95.50;;;;;;5092440;28;20026;-83
2022/12/13 08:01:07;;;;;;;44.50;17.43;;;-3.60;95.50;;;;;;5076024;28;20312;-84
2022/12/13 08:03:34;;;;;;;43.80;18.50;;;-3.40;95.70;;;;;;5084065;28;20366;-83
2022/12/13 08:06:10;;;;;;;36.80;15.73;;;-3.40;95.70;;;;;;5092691;28;20823;-84
2022/12/13 08:08:37;;;;;;;43.43;16.73;;;-3.40;95.80;;;;;;5093982;28;20754;-83
2022/12/13 08:11:05;;;;;;;38.93;17.90;;;-3.40;95.90;;;;;;5076502;28;20742;-83
2022/12/13 08:13:31;;;;;;;40.63;17.90;;;-3.30;96.00;;;;;;5092438;28;20278;-84
2022/12/13 08:16:02;;;;;;;40.00;18.40;;;-3.30;96.00;;;;;;5092696;28;20297;-84
2022/12/13 08:18:28;;;;;;;38.50;18.07;;;-3.30;96.10;;;;;;5091967;28;20407;-83
2022/12/13 08:20:59;;;;;;;44.97;17.77;;;-3.30;96.20;;;;;;5092525;28;20289;-84
2022/12/13 08:23:25;;;;;;;36.40;16.67;;;-3.20;96.30;;;;;;5092120;28;20270;-84
2022/12/13 08:25:53;;;;;;;40.57;17.83;;;-3.20;96.30;;;;;;5075747;28;20328;-83
2022/12/13 08:28:19;;;;;;;36.23;17.10;;;-3.20;96.40;;;;;;5092635;28;20305;-84
2022/12/13 08:30:45;;;;;;;38.20;15.93;;;-3.10;96.40;;;;;;5090638;28;20871;-83
2022/12/13 08:33:10;;;;;;;37.53;17.37;;;-3.10;96.50;;;;;;5092185;28;20150;-81
2022/12/13 08:35:36;;;;;;;36.00;17.83;;;-3.10;96.50;;;;;;5091997;28;20368;-81
2022/12/13 08:38:02;;;;;;;35.63;16.97;;;-3.00;96.70;;;;;;5092015;28;20036;-81
2022/12/13 08:40:28;;;;;;;40.73;17.40;;;-3.00;96.70;;;;;;5108711;28;20028;-81
2022/12/13 08:42:57;;;;;;;38.97;17.43;;;-2.90;96.80;;;;;;5072234;28;20059;-81
2022/12/13 08:45:23;;;;;;;37.93;19.07;;;-2.90;96.90;;;;;;5108502;28;20028;-81
2022/12/13 08:47:48;;;;;;;37.50;16.57;;;-2.80;97.00;;;;;;5091392;28;20266;-81
2022/12/13 08:50:14;;;;;;;43.23;18.67;;;-2.80;97.00;;;;;;5091714;28;20032;-81
2022/12/13 08:52:41;;;;;;;36.70;18.17;;;-2.70;97.10;;;;;;5075521;28;20081;-81
2022/12/13 08:55:09;;;;;;;41.17;19.23;;;-2.70;97.20;;;;;;5092136;28;20048;-79
2022/12/13 08:57:36;;;;;;;39.40;17.97;;;-2.60;97.20;;;;;;5089062;28;20285;-79
2022/12/13 09:00:06;;;;;;;41.37;18.13;;;-2.60;97.30;;;;;;5091095;28;20313;-78
2022/12/13 09:02:32;;;;;;;35.70;17.67;;;-2.50;97.40;;;;;;5073860;28;20804;-78
2022/12/13 09:04:57;;;;;;;39.10;18.50;;;-2.40;97.40;;;;;;5088460;28;20296;-79
2022/12/13 09:07:23;;;;;;;44.67;18.30;;;-2.30;97.50;;;;;;5073186;28;20021;-79
2022/12/13 09:09:48;;;;;;;41.33;18.53;;;-2.30;97.60;;;;;;5090519;28;20077;-79
2022/12/13 09:12:14;;;;;;;40.67;18.83;;;-2.30;97.60;;;;;;5091900;28;20472;-79
2022/12/13 09:14:40;;;;;;;42.97;19.03;;;-2.20;97.70;;;;;;5074882;28;20054;-80
2022/12/13 09:17:05;;;;;;;43.73;19.67;;;-2.10;97.80;;;;;;5091855;28;20028;-79
2022/12/13 09:19:31;;;;;;;40.50;19.07;;;-2.00;98.00;;;;;;5074139;28;20032;-79
2022/12/13 09:21:57;;;;;;;40.23;19.50;;;-1.90;98.20;;;;;;5091799;28;20028;-79
2022/12/13 09:24:22;;;;;;;39.47;19.83;;;-1.70;98.40;;;;;;5093417;28;20062;-79
2022/12/13 09:26:48;;;;;;;41.73;20.67;;;-1.60;98.50;;;;;;5075412;28;20028;-79
2022/12/13 09:29:15;;;;;;;39.97;19.33;;;-1.40;98.60;;;;;;5091866;28;20031;-79
2022/12/13 09:31:41;;;;;;;39.63;19.30;;;-1.20;98.60;;;;;;5075015;28;20472;-79
2022/12/13 09:34:08;;;;;;;39.77;19.63;;;-1.00;98.90;;;;;;5074745;28;20043;-80
2022/12/13 09:36:33;;;;;;;36.00;18.07;;;-0.60;99.70;;;;;;5094457;28;20032;-78
2022/12/13 09:38:59;;;;;;;31.23;16.17;;;-0.20;99.90;;;;;;5095366;28;20472;-79
2022/12/13 09:41:39;;;;;;;34.17;17.10;;;0.40;99.90;;;;;;5078480;28;20020;-79
2022/12/13 09:44:27;;;;;;;31.47;14.73;;;0.80;99.90;;;;;;5095022;28;20073;-78
2022/12/13 09:46:54;;;;;;;31.30;16.27;;;1.50;99.90;;;;;;5095122;28;20020;-79
2022/12/13 09:49:20;;;;;;;32.63;17.10;;;2.10;99.90;;;;;;5096542;28;20379;-79
2022/12/13 09:51:51;;;;;;;32.80;18.17;;;2.60;99.90;;;;;;5096457;28;20091;-79
2022/12/13 09:54:19;;;;;;;30.17;17.73;;;3.00;99.90;;;;;;5094957;28;20024;-79
2022/12/13 09:56:49;;;;;;;31.77;17.80;;;3.30;99.90;;;;;;5094821;28;20447;-78
2022/12/13 09:59:17;;;;;;;33.07;19.00;;;3.50;99.90;;;;;;5078568;28;20399;-79
2022/12/13 10:01:45;;;;;;;30.97;18.17;;;3.90;99.90;;;;;;5078536;28;20404;-79
2022/12/13 10:04:15;;;;;;;28.63;18.27;;;4.30;99.90;;;;;;5094833;28;20024;-79
2022/12/13 10:06:41;;;;;;;30.10;17.80;;;4.70;99.90;;;;;;5078429;28;20016;-79
2022/12/13 10:09:11;;;;;;;31.33;19.17;;;5.10;99.90;;;;;;5078238;28;20039;-79
2022/12/13 10:11:46;;;;;;;27.17;17.43;;;5.30;99.90;;;;;;5096026;28;20020;-79
2022/12/13 10:14:21;;;;;;;30.07;18.10;;;5.40;99.60;;;;;;5095897;28;20024;-79
2022/12/13 10:16:56;;;;;;;28.33;17.90;;;5.50;98.60;;;;;;5095063;28;20052;-79
2022/12/13 10:19:38;;;;;;;28.70;18.03;;;5.50;97.60;;;;;;5095924;28;20020;-79
2022/12/13 10:22:10;;;;;;;30.33;18.77;;;5.60;96.70;;;;;;5094616;28;20404;-79
2022/12/13 10:25:04;;;;;;;31.33;19.00;;;5.50;95.90;;;;;;5095136;28;20020;-79
2022/12/13 10:27:44;;;;;;;33.05;18.55;;;5.50;94.80;;;;;;5094512;28;20020;-79
2022/12/13 10:30:12;;;;;;;31.60;18.57;;;5.40;93.70;;;;;;5094246;28;20035;-79
2022/12/13 10:32:54;;;;;;;29.97;18.23;;;5.20;92.70;;;;;;5095663;28;20017;-79
2022/12/13 10:35:22;;;;;;;33.30;19.47;;;5.10;92.10;;;;;;5094259;28;20028;-79
2022/12/13 10:37:48;;;;;;;33.17;19.43;;;4.90;91.50;;;;;;5094110;28;20506;-79
2022/12/13 10:40:31;;;;;;;29.63;18.83;;;4.70;91.00;;;;;;5095581;28;20111;-79
2022/12/13 10:43:10;;;;;;;33.23;19.13;;;4.60;90.60;;;;;;5093995;28;20023;-80
2022/12/13 10:45:36;;;;;;;32.63;18.57;;;4.50;90.40;;;;;;5093634;28;20024;-79
2022/12/13 10:48:03;;;;;;;32.70;19.50;;;4.30;90.10;;;;;;5093861;28;20016;-79
2022/12/13 10:50:29;;;;;;;33.70;19.40;;;4.30;89.60;;;;;;5093955;28;20047;-79
2022/12/13 10:52:57;;;;;;;33.00;18.70;;;4.30;90.00;;;;;;5095325;28;20016;-79
2022/12/13 10:55:36;;;;;;;34.67;18.93;;;4.50;89.40;;;;;;5093524;28;20569;-79
2022/12/13 10:58:08;;;;;;;33.37;18.53;;;4.50;89.50;;;;;;5093815;28;20426;-79
2022/12/13 11:00:45;;;;;;;31.90;18.33;;;4.60;89.70;;;;;;5094858;28;20071;-79
2022/12/13 11:03:32;;;;;;;31.50;16.97;;;4.80;89.70;;;;;;5093715;28;20020;-79
2022/12/13 11:06:11;;;;;;;30.93;17.27;;;5.10;89.60;;;;;;5094930;28;20024;-79
2022/12/13 11:08:37;;;;;;;29.30;17.43;;;5.20;89.00;;;;;;5093626;28;20486;-79
2022/12/13 11:11:05;;;;;;;29.20;17.87;;;5.30;87.80;;;;;;5094950;28;20047;-79
2022/12/13 11:13:43;;;;;;;33.40;19.23;;;5.30;86.80;;;;;;5093424;28;20023;-79
2022/12/13 11:16:21;;;;;;;30.60;19.20;;;5.30;86.10;;;;;;5093527;28;20031;-79
2022/12/13 11:18:52;;;;;;;32.13;18.37;;;5.30;85.40;;;;;;5093461;28;20028;-79
2022/12/13 11:21:26;;;;;;;34.97;20.87;;;5.40;85.50;;;;;;5093353;28;20434;-79
2022/12/13 11:23:54;;;;;;;35.97;20.27;;;5.60;85.40;;;;;;5093493;28;20020;-78
2022/12/13 11:26:22;;;;;;;32.70;19.20;;;5.80;85.10;;;;;;5093083;28;20024;-79
2022/12/13 11:29:02;;;;;;;30.33;19.13;;;5.70;84.10;;;;;;5093277;28;20040;-80
2022/12/13 11:31:34;;;;;;;31.83;19.43;;;5.60;83.10;;;;;;5093130;28;20020;-80
2022/12/13 11:34:15;;;;;;;33.83;18.93;;;5.50;81.60;;;;;;5093101;28;20027;-80
2022/12/13 11:37:07;;;;;;;31.90;18.23;;;5.50;79.80;;;;;;5093037;28;20020;-80
2022/12/13 11:40:14;;;;;;;31.83;17.80;;;5.30;79.30;;;;;;5094270;28;20016;-80
2022/12/13 11:42:46;;;;;;;32.50;18.23;;;5.10;78.90;;;;;;5012148;28;20161;-80
2022/12/13 11:45:20;;;;;;;34.33;18.63;;;5.00;78.70;;;;;;5082985;28;20036;-79
2022/12/13 11:47:49;;;;;;;30.33;17.63;;;4.90;79.30;;;;;;5092921;28;20065;-79
2022/12/13 11:50:26;;;;;;;31.70;17.07;;;5.00;79.50;;;;;;5094137;28;20027;-79
2022/12/13 11:52:59;;;;;;;32.73;17.90;;;5.10;79.30;;;;;;5092787;28;20024;-79
2022/12/13 11:55:39;;;;;;;28.50;16.90;;;5.20;78.80;;;;;;5093851;28;20052;-78
2022/12/13 11:58:22;;;;;;;28.67;15.60;;;5.20;78.60;;;;;;5093306;28;20468;-79
2022/12/13 12:00:58;;;;;;;29.03;17.63;;;5.20;78.30;;;;;;5093774;28;20384;-79
2022/12/13 12:03:57;;;;;;;26.33;15.67;;;5.20;78.00;;;;;;5092879;28;20106;-80
2022/12/13 12:06:27;;;;;;;29.20;17.43;;;5.20;77.90;;;;;;5093778;28;20028;-79
2022/12/13 12:08:59;;;;;;;31.10;17.70;;;5.30;77.60;;;;;;5092303;28;20023;-79
2022/12/13 12:11:30;;;;;;;30.33;17.80;;;5.30;77.50;;;;;;5092454;28;20024;-79
2022/12/13 12:14:15;;;;;;;31.00;16.87;;;5.40;77.80;;;;;;5092438;28;20024;-83
2022/12/13 12:16:52;;;;;;;31.73;17.10;;;5.50;78.20;;;;;;5092399;28;20051;-79
2022/12/13 12:19:27;;;;;;;33.07;18.37;;;5.60;78.30;;;;;;5093396;28;20031;-79
2022/12/13 12:22:11;;;;;;;;;;;5.80;77.80;;;;;;5092661;28;20016;-79
2022/12/13 12:24:58;;;;;;;25.67;13.85;;;5.90;77.50;;;;;;5092135;28;19908;-80
2022/12/13 12:27:42;;;;;;;28.30;17.37;;;6.00;77.60;;;;;;5092091;28;20100;-79
2022/12/13 12:30:21;;;;;;;28.70;16.87;;;6.10;77.40;;;;;;5093453;28;20016;-80
2022/12/13 12:32:59;;;;;;;31.67;17.93;;;6.10;77.20;;;;;;5093415;28;20487;-80
2022/12/13 12:35:50;;;;;;;31.27;18.00;;;6.20;77.00;;;;;;5092133;28;20081;-80
2022/12/13 12:38:54;;;;;;;32.10;18.93;;;6.20;75.40;;;;;;5093313;28;20472;-80
2022/12/13 12:41:22;;;;;;;32.27;17.80;;;6.00;74.70;;;;;;5091785;28;20074;-80
2022/12/13 12:44:02;;;;;;;32.53;17.10;;;5.90;74.30;;;;;;5091825;28;20464;-80
2022/12/13 12:46:44;;;;;;;35.97;18.90;;;5.70;74.30;;;;;;5093351;28;20024;-80
2022/12/13 12:49:55;;;;;;;34.57;19.17;;;5.60;74.40;;;;;;5091817;28;20031;-80